sensor_id;sensor_type;location;lat;lon;timestamp;temperature;humidity
18392;DHT22;9322;50.932;5.318;2023-08-30T00:00:18;13.60;1.40
18392;DHT22;9322;50.932;5.318;2023-08-30T00:02:44;13.50;1.40
18392;DHT22;9322;50.932;5.318;2023-08-30T00:05:10;13.50;1.40
18392;DHT22;9322;50.932;5.318;2023-08-30T00:07:36;13.50;1.40
18392;DHT22;9322;50.932;5.318;2023-08-30T00:10:02;13.40;1.40
18392;DHT22;9322;50.932;5.318;2023-08-30T00:12:29;13.30;1.40
18392;DHT22;9322;50.932;5.318;2023-08-30T00:14:55;13.30;1.40
18392;DHT22;9322;50.932;5.318;2023-08-30T00:17:21;13.30;1.40
18392;DHT22;9322;50.932;5.318;2023-08-30T00:19:46;13.30;1.40
18392;DHT22;9322;50.932;5.318;2023-08-30T00:22:13;13.30;1.40
18392;DHT22;9322;50.932;5.318;2023-08-30T00:24:39;13.30;1.40
18392;DHT22;9322;50.932;5.318;2023-08-30T00:27:05;13.30;1.40
18392;DHT22;9322;50.932;5.318;2023-08-30T00:29:31;13.40;1.40
18392;DHT22;9322;50.932;5.318;2023-08-30T00:31:56;13.40;1.40
18392;DHT22;9322;50.932;5.318;2023-08-30T00:34:22;13.40;1.40
18392;DHT22;9322;50.932;5.318;2023-08-30T00:36:48;13.50;1.40
18392;DHT22;9322;50.932;5.318;2023-08-30T00:39:14;13.60;1.40
18392;DHT22;9322;50.932;5.318;2023-08-30T00:41:40;13.60;1.40
18392;DHT22;9322;50.932;5.318;2023-08-30T00:44:06;13.60;1.40
18392;DHT22;9322;50.932;5.318;2023-08-30T00:46:33;13.60;1.40
18392;DHT22;9322;50.932;5.318;2023-08-30T00:49:03;13.70;1.40
18392;DHT22;9322;50.932;5.318;2023-08-30T00:51:30;13.70;1.40
18392;DHT22;9322;50.932;5.318;2023-08-30T00:53:56;13.70;1.40
18392;DHT22;9322;50.932;5.318;2023-08-30T00:56:22;13.60;1.40
18392;DHT22;9322;50.932;5.318;2023-08-30T00:58:49;13.60;1.40
18392;DHT22;9322;50.932;5.318;2023-08-30T01:01:16;13.60;1.40
18392;DHT22;9322;50.932;5.318;2023-08-30T01:03:42;13.70;1.40
18392;DHT22;9322;50.932;5.318;2023-08-30T01:06:07;13.80;1.40
18392;DHT22;9322;50.932;5.318;2023-08-30T01:08:34;13.90;1.40
18392;DHT22;9322;50.932;5.318;2023-08-30T01:11:36;13.90;1.40
18392;DHT22;9322;50.932;5.318;2023-08-30T01:14:08;14.00;1.40
18392;DHT22;9322;50.932;5.318;2023-08-30T01:16:35;14.00;1.40
18392;DHT22;9322;50.932;5.318;2023-08-30T01:24:55;14.00;1.40
18392;DHT22;9322;50.932;5.318;2023-08-30T01:27:24;14.00;1.40
18392;DHT22;9322;50.932;5.318;2023-08-30T01:29:50;14.10;1.40
18392;DHT22;9322;50.932;5.318;2023-08-30T01:32:19;14.10;1.40
18392;DHT22;9322;50.932;5.318;2023-08-30T01:34:46;14.10;1.40
18392;DHT22;9322;50.932;5.318;2023-08-30T01:37:13;14.00;1.40
18392;DHT22;9322;50.932;5.318;2023-08-30T01:39:40;14.10;1.40
18392;DHT22;9322;50.932;5.318;2023-08-30T01:42:08;14.10;1.40
18392;DHT22;9322;50.932;5.318;2023-08-30T01:44:34;14.10;1.40
18392;DHT22;9322;50.932;5.318;2023-08-30T01:47:01;14.10;1.40
18392;DHT22;9322;50.932;5.318;2023-08-30T01:49:29;14.10;1.40
18392;DHT22;9322;50.932;5.318;2023-08-30T01:51:57;14.10;1.40
18392;DHT22;9322;50.932;5.318;2023-08-30T01:54:24;14.20;1.40
18392;DHT22;9322;50.932;5.318;2023-08-30T01:56:50;14.20;1.40
18392;DHT22;9322;50.932;5.318;2023-08-30T01:59:16;14.20;1.40
18392;DHT22;9322;50.932;5.318;2023-08-30T02:01:42;14.10;1.40
18392;DHT22;9322;50.932;5.318;2023-08-30T02:04:07;14.20;1.40
18392;DHT22;9322;50.932;5.318;2023-08-30T02:06:48;14.10;1.40
18392;DHT22;9322;50.932;5.318;2023-08-30T02:09:23;14.10;1.40
18392;DHT22;9322;50.932;5.318;2023-08-30T02:11:51;14.20;1.40
18392;DHT22;9322;50.932;5.318;2023-08-30T02:14:18;14.00;1.40
18392;DHT22;9322;50.932;5.318;2023-08-30T02:16:46;14.20;1.40
18392;DHT22;9322;50.932;5.318;2023-08-30T02:19:13;14.20;1.40
18392;DHT22;9322;50.932;5.318;2023-08-30T02:21:42;14.20;1.40
18392;DHT22;9322;50.932;5.318;2023-08-30T02:24:09;14.20;1.40
18392;DHT22;9322;50.932;5.318;2023-08-30T02:26:34;14.20;1.40
18392;DHT22;9322;50.932;5.318;2023-08-30T02:29:00;14.20;1.40
18392;DHT22;9322;50.932;5.318;2023-08-30T02:31:25;14.20;1.40
18392;DHT22;9322;50.932;5.318;2023-08-30T02:33:51;14.20;1.40
18392;DHT22;9322;50.932;5.318;2023-08-30T02:36:17;14.40;1.40
18392;DHT22;9322;50.932;5.318;2023-08-30T02:38:42;14.30;1.40
18392;DHT22;9322;50.932;5.318;2023-08-30T02:41:08;14.40;1.40
18392;DHT22;9322;50.932;5.318;2023-08-30T02:43:35;14.30;1.40
18392;DHT22;9322;50.932;5.318;2023-08-30T02:46:01;14.30;1.40
18392;DHT22;9322;50.932;5.318;2023-08-30T02:48:29;14.30;1.40
18392;DHT22;9322;50.932;5.318;2023-08-30T02:50:54;14.40;1.40
18392;DHT22;9322;50.932;5.318;2023-08-30T02:53:21;14.40;1.40
18392;DHT22;9322;50.932;5.318;2023-08-30T02:55:47;14.40;1.40
18392;DHT22;9322;50.932;5.318;2023-08-30T02:58:13;14.40;1.40
18392;DHT22;9322;50.932;5.318;2023-08-30T03:00:39;14.40;1.40
18392;DHT22;9322;50.932;5.318;2023-08-30T03:03:04;14.50;1.40
18392;DHT22;9322;50.932;5.318;2023-08-30T03:05:30;14.40;1.40
18392;DHT22;9322;50.932;5.318;2023-08-30T03:07:56;14.60;1.40
18392;DHT22;9322;50.932;5.318;2023-08-30T03:10:22;14.70;1.40
18392;DHT22;9322;50.932;5.318;2023-08-30T03:12:48;14.70;1.40
18392;DHT22;9322;50.932;5.318;2023-08-30T03:15:13;14.60;1.40
18392;DHT22;9322;50.932;5.318;2023-08-30T03:17:39;14.50;1.40
18392;DHT22;9322;50.932;5.318;2023-08-30T03:20:05;14.50;1.40
18392;DHT22;9322;50.932;5.318;2023-08-30T03:22:31;14.50;1.40
18392;DHT22;9322;50.932;5.318;2023-08-30T03:24:57;14.50;1.40
18392;DHT22;9322;50.932;5.318;2023-08-30T03:27:23;14.40;1.40
18392;DHT22;9322;50.932;5.318;2023-08-30T03:29:49;14.60;1.40
18392;DHT22;9322;50.932;5.318;2023-08-30T03:32:17;14.60;1.40
18392;DHT22;9322;50.932;5.318;2023-08-30T03:34:47;14.60;1.40
18392;DHT22;9322;50.932;5.318;2023-08-30T03:37:14;14.60;1.40
18392;DHT22;9322;50.932;5.318;2023-08-30T03:39:40;14.50;1.40
18392;DHT22;9322;50.932;5.318;2023-08-30T03:42:06;14.50;1.40
18392;DHT22;9322;50.932;5.318;2023-08-30T03:44:31;14.60;1.40
18392;DHT22;9322;50.932;5.318;2023-08-30T03:46:57;14.60;1.40
18392;DHT22;9322;50.932;5.318;2023-08-30T03:49:23;14.60;1.40
18392;DHT22;9322;50.932;5.318;2023-08-30T03:51:49;14.70;1.40
18392;DHT22;9322;50.932;5.318;2023-08-30T03:54:15;14.70;1.40
18392;DHT22;9322;50.932;5.318;2023-08-30T03:56:45;14.70;1.40
18392;DHT22;9322;50.932;5.318;2023-08-30T03:59:13;14.70;1.40
18392;DHT22;9322;50.932;5.318;2023-08-30T04:01:39;14.60;1.40
18392;DHT22;9322;50.932;5.318;2023-08-30T04:04:05;14.70;1.40
18392;DHT22;9322;50.932;5.318;2023-08-30T04:06:31;14.60;1.40
18392;DHT22;9322;50.932;5.318;2023-08-30T04:08:57;14.70;1.40
18392;DHT22;9322;50.932;5.318;2023-08-30T04:11:23;14.70;1.40
18392;DHT22;9322;50.932;5.318;2023-08-30T04:13:48;14.60;1.40
18392;DHT22;9322;50.932;5.318;2023-08-30T04:16:14;14.60;1.40
18392;DHT22;9322;50.932;5.318;2023-08-30T04:18:40;14.60;1.40
18392;DHT22;9322;50.932;5.318;2023-08-30T04:21:06;14.70;1.40
18392;DHT22;9322;50.932;5.318;2023-08-30T04:23:34;14.70;1.40
18392;DHT22;9322;50.932;5.318;2023-08-30T04:26:00;14.60;1.40
18392;DHT22;9322;50.932;5.318;2023-08-30T04:28:25;14.50;1.40
18392;DHT22;9322;50.932;5.318;2023-08-30T04:30:56;14.50;1.40
18392;DHT22;9322;50.932;5.318;2023-08-30T04:33:22;14.30;1.40
18392;DHT22;9322;50.932;5.318;2023-08-30T04:35:52;14.20;1.40
18392;DHT22;9322;50.932;5.318;2023-08-30T04:38:18;14.20;1.40
18392;DHT22;9322;50.932;5.318;2023-08-30T04:40:45;14.20;1.40
18392;DHT22;9322;50.932;5.318;2023-08-30T04:43:11;14.20;1.40
18392;DHT22;9322;50.932;5.318;2023-08-30T04:45:37;14.20;1.40
18392;DHT22;9322;50.932;5.318;2023-08-30T04:48:03;14.20;1.40
18392;DHT22;9322;50.932;5.318;2023-08-30T04:50:30;14.00;1.40
18392;DHT22;9322;50.932;5.318;2023-08-30T04:52:56;14.10;1.40
18392;DHT22;9322;50.932;5.318;2023-08-30T04:55:23;14.10;1.40
18392;DHT22;9322;50.932;5.318;2023-08-30T04:57:49;14.30;1.40
18392;DHT22;9322;50.932;5.318;2023-08-30T05:00:15;14.30;1.40
18392;DHT22;9322;50.932;5.318;2023-08-30T05:02:41;14.30;1.40
18392;DHT22;9322;50.932;5.318;2023-08-30T05:05:09;14.30;1.40
18392;DHT22;9322;50.932;5.318;2023-08-30T05:07:35;14.30;1.40
18392;DHT22;9322;50.932;5.318;2023-08-30T05:10:01;14.30;1.40
18392;DHT22;9322;50.932;5.318;2023-08-30T05:12:27;14.40;1.40
18392;DHT22;9322;50.932;5.318;2023-08-30T05:14:52;14.60;1.40
18392;DHT22;9322;50.932;5.318;2023-08-30T05:17:18;14.70;1.40
18392;DHT22;9322;50.932;5.318;2023-08-30T05:19:44;14.80;1.40
18392;DHT22;9322;50.932;5.318;2023-08-30T05:22:09;14.80;1.40
18392;DHT22;9322;50.932;5.318;2023-08-30T05:24:35;14.80;1.40
18392;DHT22;9322;50.932;5.318;2023-08-30T05:27:02;14.70;1.40
18392;DHT22;9322;50.932;5.318;2023-08-30T05:29:28;14.70;1.40
18392;DHT22;9322;50.932;5.318;2023-08-30T05:31:53;14.70;1.40
18392;DHT22;9322;50.932;5.318;2023-08-30T05:34:19;14.60;1.40
18392;DHT22;9322;50.932;5.318;2023-08-30T05:36:45;14.60;1.40
18392;DHT22;9322;50.932;5.318;2023-08-30T05:39:11;14.60;1.40
18392;DHT22;9322;50.932;5.318;2023-08-30T05:41:37;14.50;1.40
18392;DHT22;9322;50.932;5.318;2023-08-30T05:44:03;14.60;1.40
18392;DHT22;9322;50.932;5.318;2023-08-30T05:46:29;14.60;1.40
18392;DHT22;9322;50.932;5.318;2023-08-30T05:48:55;14.60;1.40
18392;DHT22;9322;50.932;5.318;2023-08-30T05:51:20;14.70;1.40
18392;DHT22;9322;50.932;5.318;2023-08-30T05:53:46;14.70;1.40
18392;DHT22;9322;50.932;5.318;2023-08-30T05:56:12;14.70;1.40
18392;DHT22;9322;50.932;5.318;2023-08-30T05:58:37;14.70;1.40
18392;DHT22;9322;50.932;5.318;2023-08-30T06:01:04;14.80;1.40
18392;DHT22;9322;50.932;5.318;2023-08-30T06:03:31;14.90;1.40
18392;DHT22;9322;50.932;5.318;2023-08-30T06:05:57;15.00;1.40
18392;DHT22;9322;50.932;5.318;2023-08-30T06:08:23;15.20;1.40
18392;DHT22;9322;50.932;5.318;2023-08-30T06:10:49;15.20;1.40
18392;DHT22;9322;50.932;5.318;2023-08-30T06:13:14;15.20;1.40
18392;DHT22;9322;50.932;5.318;2023-08-30T06:15:41;15.20;1.40
18392;DHT22;9322;50.932;5.318;2023-08-30T06:18:07;15.20;1.40
18392;DHT22;9322;50.932;5.318;2023-08-30T06:20:33;15.30;1.40
18392;DHT22;9322;50.932;5.318;2023-08-30T06:22:58;15.20;1.40
18392;DHT22;9322;50.932;5.318;2023-08-30T06:25:24;15.30;1.40
18392;DHT22;9322;50.932;5.318;2023-08-30T06:27:58;15.30;1.40
18392;DHT22;9322;50.932;5.318;2023-08-30T06:30:28;15.20;1.40
18392;DHT22;9322;50.932;5.318;2023-08-30T06:32:55;15.30;1.40
18392;DHT22;9322;50.932;5.318;2023-08-30T06:35:21;15.40;1.40
18392;DHT22;9322;50.932;5.318;2023-08-30T06:37:46;15.40;1.40
18392;DHT22;9322;50.932;5.318;2023-08-30T06:40:12;15.60;1.40
18392;DHT22;9322;50.932;5.318;2023-08-30T06:42:38;15.70;1.40
18392;DHT22;9322;50.932;5.318;2023-08-30T06:45:04;15.70;1.40
18392;DHT22;9322;50.932;5.318;2023-08-30T06:47:30;15.70;1.40
18392;DHT22;9322;50.932;5.318;2023-08-30T06:49:56;15.80;1.40
18392;DHT22;9322;50.932;5.318;2023-08-30T06:52:22;15.70;1.40
18392;DHT22;9322;50.932;5.318;2023-08-30T06:54:48;15.40;1.40
18392;DHT22;9322;50.932;5.318;2023-08-30T06:57:14;15.50;1.40
18392;DHT22;9322;50.932;5.318;2023-08-30T06:59:39;15.60;1.40
18392;DHT22;9322;50.932;5.318;2023-08-30T07:02:06;15.70;1.40
18392;DHT22;9322;50.932;5.318;2023-08-30T07:04:31;15.40;1.40
18392;DHT22;9322;50.932;5.318;2023-08-30T07:06:57;15.20;1.40
18392;DHT22;9322;50.932;5.318;2023-08-30T07:09:23;15.40;1.40
18392;DHT22;9322;50.932;5.318;2023-08-30T07:11:57;15.70;1.40
18392;DHT22;9322;50.932;5.318;2023-08-30T07:14:23;15.70;1.40
18392;DHT22;9322;50.932;5.318;2023-08-30T07:16:49;15.70;1.40
18392;DHT22;9322;50.932;5.318;2023-08-30T07:19:18;15.90;1.40
18392;DHT22;9322;50.932;5.318;2023-08-30T07:21:44;15.90;1.40
18392;DHT22;9322;50.932;5.318;2023-08-30T07:24:10;15.90;1.40
18392;DHT22;9322;50.932;5.318;2023-08-30T07:26:36;15.40;1.40
18392;DHT22;9322;50.932;5.318;2023-08-30T07:29:02;15.60;1.40
18392;DHT22;9322;50.932;5.318;2023-08-30T07:31:31;15.60;1.40
18392;DHT22;9322;50.932;5.318;2023-08-30T07:33:57;15.60;1.40
18392;DHT22;9322;50.932;5.318;2023-08-30T07:36:23;15.90;1.40
18392;DHT22;9322;50.932;5.318;2023-08-30T07:38:49;15.80;1.40
18392;DHT22;9322;50.932;5.318;2023-08-30T07:41:15;15.80;1.40
18392;DHT22;9322;50.932;5.318;2023-08-30T07:43:41;16.00;1.40
18392;DHT22;9322;50.932;5.318;2023-08-30T07:46:06;15.80;1.40
18392;DHT22;9322;50.932;5.318;2023-08-30T07:48:32;15.90;1.40
18392;DHT22;9322;50.932;5.318;2023-08-30T07:50:58;15.90;1.40
18392;DHT22;9322;50.932;5.318;2023-08-30T07:53:24;15.80;1.40
18392;DHT22;9322;50.932;5.318;2023-08-30T07:55:50;16.00;1.40
18392;DHT22;9322;50.932;5.318;2023-08-30T07:58:17;16.00;1.40
18392;DHT22;9322;50.932;5.318;2023-08-30T08:00:42;16.10;1.40
18392;DHT22;9322;50.932;5.318;2023-08-30T08:03:08;16.10;1.40
18392;DHT22;9322;50.932;5.318;2023-08-30T08:05:36;15.90;1.40
18392;DHT22;9322;50.932;5.318;2023-08-30T08:08:02;15.70;1.40
18392;DHT22;9322;50.932;5.318;2023-08-30T08:10:31;15.90;1.40
18392;DHT22;9322;50.932;5.318;2023-08-30T08:12:57;15.80;1.40
18392;DHT22;9322;50.932;5.318;2023-08-30T08:15:22;15.60;1.40
18392;DHT22;9322;50.932;5.318;2023-08-30T08:17:48;15.50;1.40
18392;DHT22;9322;50.932;5.318;2023-08-30T08:20:15;15.50;1.40
18392;DHT22;9322;50.932;5.318;2023-08-30T08:22:40;15.50;1.40
18392;DHT22;9322;50.932;5.318;2023-08-30T08:25:06;15.70;1.40
18392;DHT22;9322;50.932;5.318;2023-08-30T08:27:36;15.70;1.40
18392;DHT22;9322;50.932;5.318;2023-08-30T08:30:02;15.70;1.40
18392;DHT22;9322;50.932;5.318;2023-08-30T08:32:29;15.60;1.40
18392;DHT22;9322;50.932;5.318;2023-08-30T08:34:56;15.70;1.40
18392;DHT22;9322;50.932;5.318;2023-08-30T08:37:22;15.40;1.40
18392;DHT22;9322;50.932;5.318;2023-08-30T08:39:47;15.30;1.40
18392;DHT22;9322;50.932;5.318;2023-08-30T08:42:18;15.00;1.40
18392;DHT22;9322;50.932;5.318;2023-08-30T08:44:43;14.90;1.40
18392;DHT22;9322;50.932;5.318;2023-08-30T08:47:11;14.80;1.40
18392;DHT22;9322;50.932;5.318;2023-08-30T08:49:37;14.90;1.40
18392;DHT22;9322;50.932;5.318;2023-08-30T08:52:04;14.90;1.40
18392;DHT22;9322;50.932;5.318;2023-08-30T08:54:30;15.10;1.40
18392;DHT22;9322;50.932;5.318;2023-08-30T08:56:57;15.20;1.40
18392;DHT22;9322;50.932;5.318;2023-08-30T08:59:24;15.30;1.40
18392;DHT22;9322;50.932;5.318;2023-08-30T09:01:49;15.30;1.40
18392;DHT22;9322;50.932;5.318;2023-08-30T09:04:15;15.40;1.40
18392;DHT22;9322;50.932;5.318;2023-08-30T09:06:41;15.40;1.40
18392;DHT22;9322;50.932;5.318;2023-08-30T09:09:09;15.30;1.40
18392;DHT22;9322;50.932;5.318;2023-08-30T09:11:34;15.50;1.40
18392;DHT22;9322;50.932;5.318;2023-08-30T09:14:00;15.70;1.40
18392;DHT22;9322;50.932;5.318;2023-08-30T09:16:27;15.70;1.40
18392;DHT22;9322;50.932;5.318;2023-08-30T09:19:03;15.70;1.40
18392;DHT22;9322;50.932;5.318;2023-08-30T09:21:30;15.80;1.40
18392;DHT22;9322;50.932;5.318;2023-08-30T09:24:01;15.70;1.40
18392;DHT22;9322;50.932;5.318;2023-08-30T09:26:29;15.70;1.40
18392;DHT22;9322;50.932;5.318;2023-08-30T09:29:08;15.80;1.40
18392;DHT22;9322;50.932;5.318;2023-08-30T09:31:34;15.80;1.40
18392;DHT22;9322;50.932;5.318;2023-08-30T09:34:01;15.60;1.40
18392;DHT22;9322;50.932;5.318;2023-08-30T09:36:37;15.80;1.40
18392;DHT22;9322;50.932;5.318;2023-08-30T09:39:13;15.90;1.40
18392;DHT22;9322;50.932;5.318;2023-08-30T09:41:47;15.80;1.40
18392;DHT22;9322;50.932;5.318;2023-08-30T09:44:17;16.00;1.40
18392;DHT22;9322;50.932;5.318;2023-08-30T09:46:50;16.00;1.40
18392;DHT22;9322;50.932;5.318;2023-08-30T09:49:22;15.90;1.40
18392;DHT22;9322;50.932;5.318;2023-08-30T09:51:49;15.80;1.40
18392;DHT22;9322;50.932;5.318;2023-08-30T09:54:20;15.90;1.40
18392;DHT22;9322;50.932;5.318;2023-08-30T09:56:46;16.00;1.40
18392;DHT22;9322;50.932;5.318;2023-08-30T09:59:14;16.10;1.40
18392;DHT22;9322;50.932;5.318;2023-08-30T10:01:41;16.10;1.40
18392;DHT22;9322;50.932;5.318;2023-08-30T10:04:08;16.00;1.40
18392;DHT22;9322;50.932;5.318;2023-08-30T10:06:37;16.10;1.40
18392;DHT22;9322;50.932;5.318;2023-08-30T10:09:04;16.10;1.40
18392;DHT22;9322;50.932;5.318;2023-08-30T10:11:32;16.20;1.40
18392;DHT22;9322;50.932;5.318;2023-08-30T10:13:59;16.30;1.40
18392;DHT22;9322;50.932;5.318;2023-08-30T10:16:27;16.40;1.40
18392;DHT22;9322;50.932;5.318;2023-08-30T10:19:05;16.60;1.40
18392;DHT22;9322;50.932;5.318;2023-08-30T10:21:35;16.70;1.40
18392;DHT22;9322;50.932;5.318;2023-08-30T10:24:02;16.70;1.40
18392;DHT22;9322;50.932;5.318;2023-08-30T10:26:29;16.50;1.40
18392;DHT22;9322;50.932;5.318;2023-08-30T10:28:57;16.60;1.40
18392;DHT22;9322;50.932;5.318;2023-08-30T10:31:23;16.70;1.40
18392;DHT22;9322;50.932;5.318;2023-08-30T10:33:50;16.70;1.40
18392;DHT22;9322;50.932;5.318;2023-08-30T10:36:26;16.50;1.40
18392;DHT22;9322;50.932;5.318;2023-08-30T10:38:55;16.40;1.40
18392;DHT22;9322;50.932;5.318;2023-08-30T10:41:25;16.30;1.40
18392;DHT22;9322;50.932;5.318;2023-08-30T10:43:54;16.20;1.40
18392;DHT22;9322;50.932;5.318;2023-08-30T10:46:31;16.30;1.40
18392;DHT22;9322;50.932;5.318;2023-08-30T10:49:08;16.20;1.40
18392;DHT22;9322;50.932;5.318;2023-08-30T10:51:36;16.20;1.40
18392;DHT22;9322;50.932;5.318;2023-08-30T10:54:14;16.20;1.40
18392;DHT22;9322;50.932;5.318;2023-08-30T10:56:57;16.50;1.40
18392;DHT22;9322;50.932;5.318;2023-08-30T10:59:27;16.60;1.40
18392;DHT22;9322;50.932;5.318;2023-08-30T11:01:53;16.90;1.40
18392;DHT22;9322;50.932;5.318;2023-08-30T11:04:20;17.00;1.40
18392;DHT22;9322;50.932;5.318;2023-08-30T11:06:48;17.20;1.40
18392;DHT22;9322;50.932;5.318;2023-08-30T11:09:15;17.50;1.40
18392;DHT22;9322;50.932;5.318;2023-08-30T11:11:45;17.70;1.40
18392;DHT22;9322;50.932;5.318;2023-08-30T11:14:14;17.60;1.40
18392;DHT22;9322;50.932;5.318;2023-08-30T11:16:40;17.50;1.40
18392;DHT22;9322;50.932;5.318;2023-08-30T11:19:08;17.50;1.40
18392;DHT22;9322;50.932;5.318;2023-08-30T11:21:39;17.60;1.40
18392;DHT22;9322;50.932;5.318;2023-08-30T11:24:06;17.70;1.40
18392;DHT22;9322;50.932;5.318;2023-08-30T11:26:32;17.50;1.40
18392;DHT22;9322;50.932;5.318;2023-08-30T11:29:04;17.60;1.40
18392;DHT22;9322;50.932;5.318;2023-08-30T11:31:30;17.60;1.40
18392;DHT22;9322;50.932;5.318;2023-08-30T11:33:57;17.70;1.40
18392;DHT22;9322;50.932;5.318;2023-08-30T11:36:34;17.90;1.40
18392;DHT22;9322;50.932;5.318;2023-08-30T11:39:00;18.20;1.40
18392;DHT22;9322;50.932;5.318;2023-08-30T11:41:26;18.10;1.40
18392;DHT22;9322;50.932;5.318;2023-08-30T11:43:53;18.50;1.40
18392;DHT22;9322;50.932;5.318;2023-08-30T11:46:20;18.60;1.40
18392;DHT22;9322;50.932;5.318;2023-08-30T11:48:48;18.50;1.40
18392;DHT22;9322;50.932;5.318;2023-08-30T11:51:14;18.50;1.40
18392;DHT22;9322;50.932;5.318;2023-08-30T11:53:40;18.50;1.40
18392;DHT22;9322;50.932;5.318;2023-08-30T11:56:07;18.30;1.40
18392;DHT22;9322;50.932;5.318;2023-08-30T11:58:34;18.40;1.40
18392;DHT22;9322;50.932;5.318;2023-08-30T12:01:00;18.60;1.40
18392;DHT22;9322;50.932;5.318;2023-08-30T12:03:31;18.80;1.40
18392;DHT22;9322;50.932;5.318;2023-08-30T12:05:57;19.00;1.40
18392;DHT22;9322;50.932;5.318;2023-08-30T12:08:28;19.20;1.40
18392;DHT22;9322;50.932;5.318;2023-08-30T12:10:54;19.20;1.40
18392;DHT22;9322;50.932;5.318;2023-08-30T12:13:29;19.20;1.40
18392;DHT22;9322;50.932;5.318;2023-08-30T12:15:56;19.10;1.40
18392;DHT22;9322;50.932;5.318;2023-08-30T12:18:31;19.10;1.40
18392;DHT22;9322;50.932;5.318;2023-08-30T12:21:02;19.00;1.40
18392;DHT22;9322;50.932;5.318;2023-08-30T12:23:32;18.80;1.40
18392;DHT22;9322;50.932;5.318;2023-08-30T12:26:02;18.80;1.40
18392;DHT22;9322;50.932;5.318;2023-08-30T12:28:31;18.60;1.40
18392;DHT22;9322;50.932;5.318;2023-08-30T12:30:57;18.50;1.40
18392;DHT22;9322;50.932;5.318;2023-08-30T12:33:24;18.70;1.40
18392;DHT22;9322;50.932;5.318;2023-08-30T12:35:54;18.60;1.40
18392;DHT22;9322;50.932;5.318;2023-08-30T12:38:21;18.80;1.40
18392;DHT22;9322;50.932;5.318;2023-08-30T12:40:48;18.80;1.40
18392;DHT22;9322;50.932;5.318;2023-08-30T12:43:15;18.90;1.40
18392;DHT22;9322;50.932;5.318;2023-08-30T12:45:41;19.00;1.40
18392;DHT22;9322;50.932;5.318;2023-08-30T12:48:08;19.00;1.40
18392;DHT22;9322;50.932;5.318;2023-08-30T12:50:37;19.00;1.40
18392;DHT22;9322;50.932;5.318;2023-08-30T12:53:06;19.30;1.40
18392;DHT22;9322;50.932;5.318;2023-08-30T12:55:32;19.20;1.40
18392;DHT22;9322;50.932;5.318;2023-08-30T12:58:00;19.50;1.40
18392;DHT22;9322;50.932;5.318;2023-08-30T13:00:26;19.90;1.40
18392;DHT22;9322;50.932;5.318;2023-08-30T13:02:52;19.90;1.40
18392;DHT22;9322;50.932;5.318;2023-08-30T13:05:18;19.80;1.40
18392;DHT22;9322;50.932;5.318;2023-08-30T13:07:43;19.50;1.40
18392;DHT22;9322;50.932;5.318;2023-08-30T13:10:09;19.30;1.40
18392;DHT22;9322;50.932;5.318;2023-08-30T13:12:36;19.20;1.40
18392;DHT22;9322;50.932;5.318;2023-08-30T13:15:02;18.90;1.40
18392;DHT22;9322;50.932;5.318;2023-08-30T13:17:28;19.10;1.40
18392;DHT22;9322;50.932;5.318;2023-08-30T13:19:53;18.90;1.40
18392;DHT22;9322;50.932;5.318;2023-08-30T13:22:19;19.00;1.40
18392;DHT22;9322;50.932;5.318;2023-08-30T13:24:45;19.00;1.40
18392;DHT22;9322;50.932;5.318;2023-08-30T13:27:12;19.00;1.40
18392;DHT22;9322;50.932;5.318;2023-08-30T13:29:38;19.40;1.40
18392;DHT22;9322;50.932;5.318;2023-08-30T13:32:04;19.60;1.40
18392;DHT22;9322;50.932;5.318;2023-08-30T13:34:30;19.80;1.40
18392;DHT22;9322;50.932;5.318;2023-08-30T13:36:55;20.00;1.40
18392;DHT22;9322;50.932;5.318;2023-08-30T13:39:21;20.30;1.40
18392;DHT22;9322;50.932;5.318;2023-08-30T13:41:47;20.40;1.40
18392;DHT22;9322;50.932;5.318;2023-08-30T13:44:14;20.70;1.40
18392;DHT22;9322;50.932;5.318;2023-08-30T13:46:40;20.70;1.40
18392;DHT22;9322;50.932;5.318;2023-08-30T13:49:05;20.90;1.40
18392;DHT22;9322;50.932;5.318;2023-08-30T13:51:31;20.80;1.40
18392;DHT22;9322;50.932;5.318;2023-08-30T13:53:57;20.70;1.40
18392;DHT22;9322;50.932;5.318;2023-08-30T13:56:23;20.70;1.40
18392;DHT22;9322;50.932;5.318;2023-08-30T13:58:49;20.60;1.40
18392;DHT22;9322;50.932;5.318;2023-08-30T14:01:15;20.50;1.40
18392;DHT22;9322;50.932;5.318;2023-08-30T14:03:42;20.30;1.40
18392;DHT22;9322;50.932;5.318;2023-08-30T14:06:08;20.10;1.40
18392;DHT22;9322;50.932;5.318;2023-08-30T14:08:34;20.10;1.40
18392;DHT22;9322;50.932;5.318;2023-08-30T14:11:00;20.00;1.40
18392;DHT22;9322;50.932;5.318;2023-08-30T14:13:25;20.20;1.40
18392;DHT22;9322;50.932;5.318;2023-08-30T14:15:53;20.40;1.40
18392;DHT22;9322;50.932;5.318;2023-08-30T14:18:19;20.40;1.40
18392;DHT22;9322;50.932;5.318;2023-08-30T14:20:45;20.50;1.40
18392;DHT22;9322;50.932;5.318;2023-08-30T14:23:10;20.40;1.40
18392;DHT22;9322;50.932;5.318;2023-08-30T14:25:36;20.30;1.40
18392;DHT22;9322;50.932;5.318;2023-08-30T14:28:02;20.30;1.40
18392;DHT22;9322;50.932;5.318;2023-08-30T14:30:30;20.20;1.40
18392;DHT22;9322;50.932;5.318;2023-08-30T14:32:55;20.20;1.40
18392;DHT22;9322;50.932;5.318;2023-08-30T14:35:21;20.10;1.40
18392;DHT22;9322;50.932;5.318;2023-08-30T14:37:50;19.80;1.40
18392;DHT22;9322;50.932;5.318;2023-08-30T14:40:16;19.60;1.40
18392;DHT22;9322;50.932;5.318;2023-08-30T14:42:42;19.50;1.40
18392;DHT22;9322;50.932;5.318;2023-08-30T14:45:08;19.60;1.40
18392;DHT22;9322;50.932;5.318;2023-08-30T14:47:34;19.60;1.40
18392;DHT22;9322;50.932;5.318;2023-08-30T14:50:00;19.60;1.40
18392;DHT22;9322;50.932;5.318;2023-08-30T14:52:29;19.60;1.40
18392;DHT22;9322;50.932;5.318;2023-08-30T14:54:55;19.70;1.40
18392;DHT22;9322;50.932;5.318;2023-08-30T14:57:21;19.80;1.40
18392;DHT22;9322;50.932;5.318;2023-08-30T14:59:47;20.00;1.40
18392;DHT22;9322;50.932;5.318;2023-08-30T15:02:13;19.80;1.40
18392;DHT22;9322;50.932;5.318;2023-08-30T15:04:40;19.70;1.40
18392;DHT22;9322;50.932;5.318;2023-08-30T15:07:06;19.60;1.40
18392;DHT22;9322;50.932;5.318;2023-08-30T15:09:32;19.50;1.40
18392;DHT22;9322;50.932;5.318;2023-08-30T15:11:58;19.40;1.40
18392;DHT22;9322;50.932;5.318;2023-08-30T15:14:24;19.40;1.40
18392;DHT22;9322;50.932;5.318;2023-08-30T15:16:50;19.20;1.40
18392;DHT22;9322;50.932;5.318;2023-08-30T15:19:16;19.20;1.40
18392;DHT22;9322;50.932;5.318;2023-08-30T15:21:41;19.00;1.40
18392;DHT22;9322;50.932;5.318;2023-08-30T15:24:08;19.20;1.40
18392;DHT22;9322;50.932;5.318;2023-08-30T15:26:34;19.50;1.40
18392;DHT22;9322;50.932;5.318;2023-08-30T15:29:00;19.70;1.40
18392;DHT22;9322;50.932;5.318;2023-08-30T15:31:26;19.70;1.40
18392;DHT22;9322;50.932;5.318;2023-08-30T15:33:51;19.70;1.40
18392;DHT22;9322;50.932;5.318;2023-08-30T15:36:17;19.40;1.40
18392;DHT22;9322;50.932;5.318;2023-08-30T15:38:43;19.40;1.40
18392;DHT22;9322;50.932;5.318;2023-08-30T15:41:11;19.40;1.40
18392;DHT22;9322;50.932;5.318;2023-08-30T15:43:40;19.40;1.40
18392;DHT22;9322;50.932;5.318;2023-08-30T15:46:10;19.40;1.40
18392;DHT22;9322;50.932;5.318;2023-08-30T15:48:37;19.30;1.40
18392;DHT22;9322;50.932;5.318;2023-08-30T15:51:03;19.40;1.40
18392;DHT22;9322;50.932;5.318;2023-08-30T15:53:29;19.20;1.40
18392;DHT22;9322;50.932;5.318;2023-08-30T15:55:55;19.20;1.40
18392;DHT22;9322;50.932;5.318;2023-08-30T15:58:21;19.10;1.40
18392;DHT22;9322;50.932;5.318;2023-08-30T16:00:47;19.20;1.40
18392;DHT22;9322;50.932;5.318;2023-08-30T16:03:15;19.10;1.40
18392;DHT22;9322;50.932;5.318;2023-08-30T16:05:44;19.10;1.40